Terminal Aerodrome Forecast
Issued by NWS Duluth, MN

Home | Current Version | Previous Version | Text Only | Print | Product List | Glossary On
Versions: 1 2 3 4 5 6 7 8 9 10 11 12 13 14 15 16 17 18 19 20
000
FTUS43 KDLH 232123 AAA
TAFINL
TAF AMD
KINL 232123Z 2321/2418 23008KT P6SM BKN050 BKN080
     FM240300 VRB03KT P6SM SCT050
      TEMPO 2407/2411 5SM BR
     FM241500 17006KT P6SM BKN028=

USA.gov is the U.S. government's official web portal to all federal, state and local government web resources and services.